Time;durP1;ratioP1;P1;durP2;ratioP2;P2;SDS_P1;SDS_P2;PMS_P1;PMS_P2;Temp;Humidity;BMP_temperature;BMP_pressure;BME280_temperature;BME280_humidity;BME280_pressure;Samples;Min_cycle;Max_cycle;Signal;HPM_P1;HPM_P2
2024/04/12 00:01:48;;;;;;;1.35;0.60;;;12.90;99.90;;;;;;5319378;26;20111;-83
2024/04/12 00:04:20;;;;;;;1.38;0.63;;;12.90;99.90;;;;;;5319748;26;20466;-83
2024/04/12 00:06:52;;;;;;;1.02;0.60;;;12.90;99.90;;;;;;5309547;26;20521;-85
2024/04/12 00:09:20;;;;;;;1.60;0.63;;;12.90;99.90;;;;;;5333564;26;20115;-84
2024/04/12 00:11:54;;;;;;;0.90;0.70;;;12.80;99.90;;;;;;5327966;26;20331;-83
2024/04/12 00:14:23;;;;;;;1.52;0.75;;;12.80;99.90;;;;;;5330549;26;20011;-85
2024/04/12 00:16:52;;;;;;;1.05;0.68;;;12.80;99.90;;;;;;5310504;26;20036;-83
2024/04/12 00:19:22;;;;;;;2.22;1.08;;;12.70;99.90;;;;;;5338545;26;20005;-83
2024/04/12 00:21:52;;;;;;;1.70;0.90;;;12.70;99.90;;;;;;5359775;26;20440;-84
2024/04/12 00:24:24;;;;;;;1.23;0.93;;;12.60;99.90;;;;;;5329580;26;20135;-85
2024/04/12 00:26:53;;;;;;;1.60;0.77;;;12.60;99.90;;;;;;5338049;26;20017;-84
2024/04/12 00:29:36;;;;;;;1.92;0.88;;;12.50;99.90;;;;;;5368633;26;20020;-84
2024/04/12 00:32:18;;;;;;;1.98;0.52;;;12.50;99.90;;;;;;5370332;26;21028;-84
2024/04/12 00:34:47;;;;;;;1.30;0.60;;;12.50;99.90;;;;;;5341734;26;20127;-83
2024/04/12 00:37:16;;;;;;;1.02;0.60;;;12.40;99.90;;;;;;5379714;26;20017;-84
2024/04/12 00:39:50;;;;;;;1.02;0.80;;;12.40;99.90;;;;;;5379254;26;20014;-84
2024/04/12 00:42:26;;;;;;;1.33;0.70;;;12.40;99.90;;;;;;5364612;26;20053;-82
2024/04/12 00:44:54;;;;;;;1.25;0.65;;;12.30;99.90;;;;;;5346327;26;20615;-84
2024/04/12 00:47:22;;;;;;;1.65;0.77;;;12.30;99.90;;;;;;5371224;26;19999;-84
2024/04/12 00:49:50;;;;;;;0.95;0.63;;;12.20;99.90;;;;;;5350988;26;20002;-83
2024/04/12 00:52:26;;;;;;;0.80;0.63;;;12.20;99.90;;;;;;5339349;26;20024;-83
2024/04/12 00:55:01;;;;;;;0.98;0.70;;;12.10;99.90;;;;;;5346576;26;20000;-84
2024/04/12 00:57:28;;;;;;;1.45;0.70;;;12.10;99.90;;;;;;5308058;26;20004;-84
2024/04/12 00:59:55;;;;;;;0.90;0.60;;;12.00;99.90;;;;;;5307645;26;20819;-83
2024/04/12 01:02:22;;;;;;;1.05;0.60;;;12.00;99.90;;;;;;5337466;26;20693;-84
2024/04/12 01:04:50;;;;;;;0.50;0.50;;;12.00;99.90;;;;;;5294005;26;20467;-84
2024/04/12 01:07:18;;;;;;;0.90;0.50;;;12.00;99.90;;;;;;5337079;26;20004;-85
2024/04/12 01:09:46;;;;;;;0.75;0.50;;;11.90;99.90;;;;;;5371404;26;20000;-83
2024/04/12 01:12:17;;;;;;;1.40;0.80;;;11.90;99.90;;;;;;5339818;26;20536;-84
2024/04/12 01:14:45;;;;;;;0.90;0.50;;;11.90;99.90;;;;;;5304245;26;20001;-84
2024/04/12 01:17:13;;;;;;;0.90;0.73;;;11.90;99.90;;;;;;5310035;26;20016;-84
2024/04/12 01:19:41;;;;;;;1.13;0.55;;;11.90;99.90;;;;;;5316315;26;20312;-84
2024/04/12 01:22:09;;;;;;;1.85;0.60;;;11.90;99.90;;;;;;5373904;26;20015;-83
2024/04/12 01:24:38;;;;;;;1.33;0.60;;;11.80;99.90;;;;;;5347795;26;20011;-83
2024/04/12 01:27:06;;;;;;;2.55;0.70;;;11.80;99.90;;;;;;5341647;26;20516;-83
2024/04/12 01:29:34;;;;;;;0.60;0.57;;;11.80;99.90;;;;;;5404294;26;20015;-83
2024/04/12 01:32:04;;;;;;;1.23;0.80;;;11.80;99.90;;;;;;5366506;26;20007;-84
2024/04/12 01:34:32;;;;;;;0.82;0.63;;;11.70;99.90;;;;;;5314748;26;20014;-82
2024/04/12 01:37:00;;;;;;;0.77;0.60;;;11.70;99.90;;;;;;5342501;26;20015;-84
2024/04/12 01:39:28;;;;;;;0.63;0.52;;;11.70;99.90;;;;;;5342721;26;20021;-83
2024/04/12 01:41:55;;;;;;;1.10;0.70;;;11.70;99.90;;;;;;5342984;26;20005;-84
2024/04/12 01:44:24;;;;;;;1.20;0.70;;;11.60;99.90;;;;;;5394694;26;20334;-83
2024/04/12 01:46:53;;;;;;;1.67;0.77;;;11.60;99.90;;;;;;5349878;26;20011;-84
2024/04/12 01:49:22;;;;;;;1.98;0.88;;;11.60;99.90;;;;;;5349344;26;20003;-83
2024/04/12 01:51:53;;;;;;;0.85;0.47;;;11.60;99.90;;;;;;5320738;26;20056;-83
2024/04/12 01:54:22;;;;;;;1.63;0.40;;;11.60;99.90;;;;;;5376255;26;20011;-82
2024/04/12 01:56:50;;;;;;;1.35;0.50;;;11.60;99.90;;;;;;5286637;26;20016;-83
2024/04/12 01:59:21;;;;;;;1.13;0.30;;;11.60;99.90;;;;;;5342320;26;20004;-83
2024/04/12 02:01:49;;;;;;;0.73;0.40;;;11.50;99.90;;;;;;5343496;26;20008;-84
2024/04/12 02:04:21;;;;;;;1.98;0.63;;;11.50;99.90;;;;;;5400458;26;20075;-83
2024/04/12 02:06:51;;;;;;;1.05;0.70;;;11.50;99.90;;;;;;5385638;26;20192;-83
2024/04/12 02:09:20;;;;;;;0.95;0.52;;;11.50;99.90;;;;;;5383728;26;20400;-84
2024/04/12 02:11:52;;;;;;;1.13;0.70;;;11.40;99.90;;;;;;5385312;26;20087;-84
2024/04/12 02:14:19;;;;;;;1.35;0.60;;;11.40;99.90;;;;;;5384736;26;20018;-84
2024/04/12 02:16:50;;;;;;;1.00;0.50;;;11.40;99.90;;;;;;5383766;26;20001;-83
2024/04/12 02:19:21;;;;;;;0.90;0.60;;;11.40;99.90;;;;;;5318770;26;20083;-83
2024/04/12 02:21:50;;;;;;;1.67;0.60;;;11.40;99.90;;;;;;5343163;26;20004;-83
2024/04/12 02:24:19;;;;;;;0.80;0.50;;;11.40;99.90;;;;;;5395548;26;20474;-84
2024/04/12 02:26:49;;;;;;;0.98;0.60;;;11.30;99.90;;;;;;5372182;26;20073;-82
2024/04/12 02:29:21;;;;;;;0.68;0.60;;;11.30;99.90;;;;;;5320565;26;20443;-83
2024/04/12 02:31:50;;;;;;;1.17;0.60;;;11.30;99.90;;;;;;5316745;26;20066;-84
2024/04/12 02:34:17;;;;;;;0.75;0.40;;;11.20;99.90;;;;;;5333709;26;20104;-84
2024/04/12 02:36:48;;;;;;;0.75;0.68;;;11.20;99.90;;;;;;5337583;26;20005;-84
2024/04/12 02:39:23;;;;;;;0.90;0.40;;;11.20;99.90;;;;;;5353150;26;20014;-84
2024/04/12 02:41:51;;;;;;;0.80;0.60;;;11.10;99.90;;;;;;5372060;26;20094;-83
2024/04/12 02:44:19;;;;;;;1.42;0.55;;;11.10;99.90;;;;;;5332240;26;20041;-84
2024/04/12 02:46:47;;;;;;;1.08;0.60;;;11.10;99.90;;;;;;5346910;26;20008;-83
2024/04/12 02:49:14;;;;;;;1.38;0.85;;;11.00;99.90;;;;;;5363492;26;20048;-83
2024/04/12 02:51:47;;;;;;;1.77;0.63;;;11.00;99.90;;;;;;5358886;26;20008;-84
2024/04/12 02:54:16;;;;;;;0.60;0.55;;;11.00;99.90;;;;;;5370670;26;20011;-83
2024/04/12 02:56:45;;;;;;;2.17;0.40;;;11.00;99.90;;;;;;5337284;26;20005;-85
2024/04/12 02:59:14;;;;;;;0.50;0.40;;;11.00;99.90;;;;;;5309358;26;19997;-84
2024/04/12 03:01:43;;;;;;;0.90;0.60;;;10.90;99.90;;;;;;5308100;26;20013;-84
2024/04/12 03:04:11;;;;;;;0.75;0.55;;;10.90;99.90;;;;;;5333068;26;20058;-84
2024/04/12 03:06:38;;;;;;;0.50;0.30;;;10.90;99.90;;;;;;5366733;26;20055;-84
2024/04/12 03:09:06;;;;;;;0.47;0.35;;;10.90;99.90;;;;;;5336419;26;20001;-83
2024/04/12 03:11:33;;;;;;;0.65;0.40;;;10.90;99.90;;;;;;5307522;26;20012;-83
2024/04/12 03:14:12;;;;;;;0.60;0.40;;;10.90;99.90;;;;;;5358536;26;20012;-83
2024/04/12 03:16:41;;;;;;;0.80;0.47;;;10.90;99.90;;;;;;5315921;26;19996;-82
2024/04/12 03:19:10;;;;;;;2.08;0.70;;;10.90;99.90;;;;;;5370704;26;20004;-83
2024/04/12 03:21:40;;;;;;;1.70;0.52;;;10.90;99.90;;;;;;5299847;26;20009;-83
2024/04/12 03:24:09;;;;;;;0.30;0.30;;;10.90;99.90;;;;;;5380207;26;20003;-82
2024/04/12 03:26:36;;;;;;;0.57;0.47;;;10.90;99.90;;;;;;5391954;26;20080;-83
2024/04/12 03:29:05;;;;;;;0.40;0.40;;;10.90;99.90;;;;;;5341385;26;20128;-84
2024/04/12 03:31:34;;;;;;;0.98;0.60;;;10.90;99.90;;;;;;5369531;26;20000;-84
2024/04/12 03:34:06;;;;;;;1.27;0.65;;;10.90;99.90;;;;;;5312953;26;20062;-83
2024/04/12 03:42:03;;;;;;;0.85;0.57;;;10.90;99.90;;;;;;5370330;26;20061;-83
2024/04/12 03:44:34;;;;;;;1.55;0.73;;;10.90;99.90;;;;;;5370597;26;20329;-83
2024/04/12 03:47:07;;;;;;;0.57;0.40;;;10.90;99.90;;;;;;5370663;26;20077;-84
2024/04/12 03:49:41;;;;;;;0.60;0.40;;;11.00;99.90;;;;;;5343746;26;20027;-81
2024/04/12 03:52:12;;;;;;;0.60;0.30;;;11.00;99.90;;;;;;5369661;26;20444;-84
2024/04/12 03:54:42;;;;;;;0.50;0.40;;;11.00;99.90;;;;;;5375433;26;20028;-84
2024/04/12 03:57:09;;;;;;;1.00;0.70;;;11.10;99.90;;;;;;5341043;26;20461;-84
2024/04/12 03:59:38;;;;;;;0.47;0.43;;;11.10;99.90;;;;;;5344480;26;20081;-83
2024/04/12 04:02:08;;;;;;;1.27;0.60;;;11.10;99.90;;;;;;5341543;26;20001;-83
2024/04/12 04:04:44;;;;;;;0.38;0.32;;;11.10;99.90;;;;;;5314418;26;20007;-83
2024/04/12 04:07:17;;;;;;;0.47;0.47;;;11.10;99.90;;;;;;5343015;26;19996;-84
2024/04/12 04:09:46;;;;;;;0.98;0.40;;;11.10;99.90;;;;;;5341836;26;20521;-83
2024/04/12 04:12:14;;;;;;;1.02;0.77;;;11.20;99.90;;;;;;5371028;26;20042;-83
2024/04/12 04:14:48;;;;;;;1.25;0.50;;;11.10;99.90;;;;;;5336860;26;20000;-83
2024/04/12 04:17:18;;;;;;;;;;;11.20;99.90;;;;;;5307520;26;20446;-83
2024/04/12 04:19:45;;;;;;;0.40;0.28;;;11.20;99.90;;;;;;5305400;26;19926;-83
2024/04/12 04:22:39;;;;;;;0.52;0.30;;;11.20;99.90;;;;;;5340351;26;20001;-83
2024/04/12 04:25:08;;;;;;;1.00;0.43;;;11.20;99.90;;;;;;5335995;26;20000;-83
2024/04/12 04:27:36;;;;;;;0.50;0.50;;;11.30;99.90;;;;;;5352438;26;20023;-84
2024/04/12 04:30:05;;;;;;;0.80;0.40;;;11.30;99.90;;;;;;5278055;26;20290;-83
2024/04/12 04:32:34;;;;;;;1.92;0.60;;;11.30;99.90;;;;;;5343893;26;20850;-84
2024/04/12 04:35:05;;;;;;;1.48;0.47;;;11.30;99.90;;;;;;5340963;26;20025;-83
2024/04/12 04:37:37;;;;;;;1.42;0.60;;;11.30;99.90;;;;;;5370838;26;20000;-84
2024/04/12 04:40:11;;;;;;;0.65;0.40;;;11.40;99.90;;;;;;5342091;26;20046;-83
2024/04/12 04:42:39;;;;;;;0.80;0.52;;;11.40;99.90;;;;;;5341656;26;20000;-84
2024/04/12 04:45:07;;;;;;;0.90;0.40;;;11.40;99.90;;;;;;5387954;26;20567;-83
2024/04/12 04:47:38;;;;;;;1.45;0.43;;;11.40;99.90;;;;;;5341102;26;20012;-82
2024/04/12 04:50:08;;;;;;;0.68;0.43;;;11.40;99.90;;;;;;5314787;26;20044;-84
2024/04/12 04:52:36;;;;;;;1.40;0.57;;;11.40;99.90;;;;;;5337241;26;20287;-82
2024/04/12 04:55:06;;;;;;;1.20;0.70;;;11.40;99.90;;;;;;5344888;26;20533;-83
2024/04/12 04:57:39;;;;;;;1.25;0.40;;;11.40;99.90;;;;;;5337465;26;20502;-83
2024/04/12 05:00:08;;;;;;;0.65;0.47;;;11.40;99.90;;;;;;5337871;26;20013;-83
2024/04/12 05:02:39;;;;;;;1.00;0.40;;;11.40;99.90;;;;;;5338810;26;20059;-83
2024/04/12 05:05:06;;;;;;;1.75;0.50;;;11.40;99.90;;;;;;5400842;26;20395;-81
2024/04/12 05:07:36;;;;;;;0.63;0.57;;;11.40;99.90;;;;;;5404799;26;20073;-83
2024/04/12 05:10:14;;;;;;;0.30;0.30;;;11.40;99.90;;;;;;5358574;26;19997;-83
2024/04/12 05:12:42;;;;;;;1.85;0.50;;;11.40;99.90;;;;;;5331549;26;20019;-82
2024/04/12 05:17:55;;;;;;;0.80;0.50;;;11.40;99.90;;;;;;5368052;26;20005;-81
2024/04/12 05:20:38;;;;;;;0.93;0.40;;;11.40;99.90;;;;;;5367231;26;20012;-84
2024/04/12 05:23:11;;;;;;;;;;;11.40;99.90;;;;;;5305443;26;20011;-83
2024/04/12 05:25:43;;;;;;;1.27;0.65;;;11.40;99.90;;;;;;5304571;26;19973;-83
2024/04/12 05:28:12;;;;;;;0.93;0.55;;;11.30;99.90;;;;;;5354324;26;20035;-82
2024/04/12 05:30:42;;;;;;;1.08;0.47;;;11.40;99.90;;;;;;5368321;26;20004;-82
2024/04/12 05:33:11;;;;;;;0.70;0.40;;;11.30;99.90;;;;;;5321538;26;20000;-83
2024/04/12 05:35:40;;;;;;;1.70;0.60;;;11.30;99.90;;;;;;5336422;26;20009;-83
2024/04/12 05:38:07;;;;;;;0.55;0.30;;;11.30;99.90;;;;;;5295546;26;20004;-84
2024/04/12 05:40:51;;;;;;;0.90;0.47;;;11.30;99.90;;;;;;5344936;26;20001;-83
2024/04/12 05:43:25;;;;;;;1.42;0.45;;;11.40;99.90;;;;;;5354499;26;20411;-83
2024/04/12 05:45:53;;;;;;;1.27;0.52;;;11.40;99.90;;;;;;5340865;26;20005;-84
2024/04/12 05:48:22;;;;;;;1.17;0.50;;;11.40;99.90;;;;;;5365066;26;20007;-84
2024/04/12 05:50:54;;;;;;;0.90;0.38;;;11.50;99.90;;;;;;5296208;26;20013;-83
2024/04/12 05:53:31;;;;;;;0.60;0.43;;;11.50;99.90;;;;;;5320655;26;20480;-83
2024/04/12 05:58:46;;;;;;;1.63;0.80;;;11.50;99.90;;;;;;5364319;26;20011;-81
2024/04/12 06:01:15;;;;;;;0.93;0.40;;;11.60;99.90;;;;;;5363266;26;20169;-82
2024/04/12 06:03:48;;;;;;;0.98;0.43;;;11.60;99.90;;;;;;5354663;26;20463;-83
2024/04/12 06:06:21;;;;;;;0.95;0.40;;;11.60;99.90;;;;;;5323346;26;20019;-82
2024/04/12 06:08:49;;;;;;;1.23;0.40;;;11.60;99.90;;;;;;5320477;26;20004;-83
2024/04/12 06:11:16;;;;;;;0.38;0.30;;;11.70;99.90;;;;;;5294855;26;20035;-83
2024/04/12 06:13:47;;;;;;;1.10;0.40;;;11.70;99.90;;;;;;5310419;26;20470;-82
2024/04/12 06:16:17;;;;;;;0.40;0.30;;;11.80;99.90;;;;;;5329918;26;20005;-83
2024/04/12 06:18:45;;;;;;;1.25;0.40;;;11.90;99.90;;;;;;5302440;26;20126;-83
2024/04/12 06:21:12;;;;;;;0.93;0.25;;;11.90;99.90;;;;;;5329822;26;20005;-82
2024/04/12 06:23:40;;;;;;;0.85;0.40;;;11.90;99.90;;;;;;5344499;26;20036;-83
2024/04/12 06:26:06;;;;;;;1.58;0.55;;;12.00;99.90;;;;;;5329447;26;20088;-82
2024/04/12 06:28:36;;;;;;;0.50;0.50;;;12.10;99.90;;;;;;5300375;26;20346;-82
2024/04/12 06:31:05;;;;;;;0.55;0.43;;;12.10;99.90;;;;;;5332260;26;20016;-82
2024/04/12 06:33:33;;;;;;;0.60;0.40;;;12.20;99.90;;;;;;5371223;26;20007;-82
2024/04/12 06:36:11;;;;;;;0.45;0.40;;;12.20;99.90;;;;;;5341261;26;20007;-82
2024/04/12 06:38:39;;;;;;;1.50;0.70;;;12.30;99.90;;;;;;5317795;26;20073;-81
2024/04/12 06:41:10;;;;;;;0.40;0.40;;;12.30;99.90;;;;;;5369302;26;20010;-82
2024/04/12 06:43:38;;;;;;;0.63;0.40;;;12.40;99.90;;;;;;5358871;26;20010;-81
2024/04/12 06:46:27;;;;;;;0.40;0.38;;;12.40;99.90;;;;;;5341107;26;20014;-82
2024/04/12 06:49:07;;;;;;;1.65;0.47;;;12.40;99.90;;;;;;5377087;26;20389;-84
2024/04/12 06:52:02;;;;;;;1.33;0.65;;;12.50;99.90;;;;;;5347282;26;20014;-84
2024/04/12 06:54:27;;;;;;;0.93;0.50;;;12.60;99.90;;;;;;5371846;26;19999;-83
2024/04/12 06:56:55;;;;;;;0.80;0.50;;;12.60;99.90;;;;;;5313500;26;20079;-82
2024/04/12 06:59:26;;;;;;;1.63;0.75;;;12.70;99.90;;;;;;5304860;26;20387;-82
2024/04/12 07:01:54;;;;;;;1.92;0.50;;;12.70;99.90;;;;;;5367673;26;20007;-82
2024/04/12 07:04:21;;;;;;;1.88;0.60;;;12.70;99.90;;;;;;5385631;26;20028;-82
2024/04/12 07:06:50;;;;;;;0.85;0.50;;;12.70;99.90;;;;;;5291977;26;20001;-82
2024/04/12 07:09:22;;;;;;;0.63;0.40;;;12.80;99.90;;;;;;5326738;26;20008;-82
2024/04/12 07:11:51;;;;;;;0.77;0.55;;;12.80;99.90;;;;;;5329011;26;20079;-82
2024/04/12 07:14:22;;;;;;;0.30;0.30;;;12.90;99.90;;;;;;5329552;26;20031;-83
2024/04/12 07:16:49;;;;;;;0.93;0.60;;;13.00;99.90;;;;;;5311835;26;20014;-82
2024/04/12 07:19:18;;;;;;;1.77;0.80;;;13.00;99.90;;;;;;5338031;26;20016;-82
2024/04/12 07:21:45;;;;;;;2.03;0.70;;;13.10;99.90;;;;;;5365851;26;20655;-81
2024/04/12 07:24:15;;;;;;;1.58;0.57;;;13.10;99.90;;;;;;5383675;26;20443;-81
2024/04/12 07:26:43;;;;;;;0.85;0.50;;;13.20;99.90;;;;;;5368792;26;20003;-82
2024/04/12 07:29:13;;;;;;;0.68;0.50;;;13.20;99.90;;;;;;5318773;26;20004;-82
2024/04/12 07:31:42;;;;;;;1.73;0.40;;;13.30;99.90;;;;;;5286719;26;20016;-81
2024/04/12 07:34:09;;;;;;;1.05;0.77;;;13.40;99.90;;;;;;5317564;26;20318;-81
2024/04/12 07:36:37;;;;;;;0.50;0.50;;;13.50;99.90;;;;;;5341141;26;20013;-81
2024/04/12 07:39:07;;;;;;;0.75;0.47;;;13.60;99.90;;;;;;5350063;26;20020;-82
2024/04/12 07:41:42;;;;;;;1.73;0.60;;;13.60;99.90;;;;;;5298255;26;20000;-82
2024/04/12 07:44:13;;;;;;;1.52;0.50;;;13.70;99.90;;;;;;5320903;26;20016;-82
2024/04/12 07:46:48;;;;;;;0.55;0.30;;;13.80;99.90;;;;;;5350930;26;20001;-76
2024/04/12 07:49:16;;;;;;;0.88;0.70;;;13.90;99.90;;;;;;5326986;26;20011;-77
2024/04/12 07:51:45;;;;;;;0.95;0.50;;;13.90;99.90;;;;;;5322167;26;20852;-77
2024/04/12 07:54:12;;;;;;;0.40;0.40;;;13.90;99.90;;;;;;5332289;26;20789;-76
2024/04/12 07:56:44;;;;;;;0.45;0.38;;;14.00;99.90;;;;;;5357932;26;20008;-76
2024/04/12 07:59:17;;;;;;;0.77;0.50;;;14.00;99.90;;;;;;5326121;26;20074;-77
2024/04/12 08:01:47;;;;;;;0.32;0.32;;;14.10;99.90;;;;;;5316124;26;20039;-77
2024/04/12 08:04:23;;;;;;;2.15;0.57;;;14.20;99.90;;;;;;5322365;26;20019;-77
2024/04/12 08:06:57;;;;;;;0.30;0.30;;;14.30;99.90;;;;;;5317807;26;20366;-77
2024/04/12 08:09:34;;;;;;;1.83;0.55;;;14.40;99.90;;;;;;5303991;26;19997;-77
2024/04/12 08:12:15;;;;;;;0.70;0.43;;;14.50;99.90;;;;;;5321714;26;20086;-77
2024/04/12 08:14:55;;;;;;;0.65;0.38;;;14.60;99.90;;;;;;5321336;26;20008;-78
2024/04/12 08:17:24;;;;;;;0.50;0.30;;;14.70;99.90;;;;;;5360477;26;20126;-77
2024/04/12 08:19:55;;;;;;;0.57;0.38;;;14.80;99.90;;;;;;5329767;26;20024;-77
2024/04/12 08:22:26;;;;;;;0.82;0.60;;;14.90;99.90;;;;;;5368416;26;20019;-78
2024/04/12 08:24:54;;;;;;;1.73;0.68;;;14.90;99.90;;;;;;5323857;26;20008;-77
2024/04/12 08:27:25;;;;;;;1.00;0.40;;;15.00;99.90;;;;;;5346535;26;20020;-77
2024/04/12 08:29:53;;;;;;;0.63;0.38;;;15.00;99.90;;;;;;5356386;26;20441;-78
2024/04/12 08:32:27;;;;;;;1.48;0.70;;;15.20;99.90;;;;;;5346419;26;20001;-77
2024/04/12 08:34:57;;;;;;;0.77;0.45;;;15.20;99.90;;;;;;5334876;26;20995;-77
2024/04/12 08:37:36;;;;;;;1.20;0.60;;;15.40;99.90;;;;;;5325600;26;20510;-78
2024/04/12 08:40:11;;;;;;;0.90;0.47;;;15.40;99.90;;;;;;5333952;26;20001;-78
2024/04/12 08:42:39;;;;;;;1.67;0.35;;;15.50;99.90;;;;;;5333415;26;20106;-77
2024/04/12 08:45:12;;;;;;;0.60;0.40;;;15.70;99.90;;;;;;5311360;26;20021;-84
2024/04/12 08:47:56;;;;;;;1.20;0.57;;;15.80;99.90;;;;;;5302088;26;20632;-85
2024/04/12 08:50:24;;;;;;;0.73;0.35;;;15.70;99.90;;;;;;5353648;26;20052;-83
2024/04/12 08:52:53;;;;;;;0.75;0.45;;;15.80;99.90;;;;;;5350166;26;20621;-81
2024/04/12 08:55:23;;;;;;;0.45;0.30;;;15.80;99.90;;;;;;5351228;26;20005;-84
2024/04/12 08:57:56;;;;;;;0.63;0.40;;;15.90;99.90;;;;;;5345779;26;20017;-84
2024/04/12 09:00:28;;;;;;;1.50;0.60;;;16.00;99.90;;;;;;5294231;26;20482;-83
2024/04/12 09:03:02;;;;;;;0.70;0.40;;;16.20;99.90;;;;;;5325460;26;20007;-84
2024/04/12 09:05:32;;;;;;;0.40;0.40;;;16.30;99.90;;;;;;5327455;26;20032;-82
2024/04/12 09:07:59;;;;;;;0.50;0.50;;;16.50;99.90;;;;;;5341754;26;20017;-83
2024/04/12 09:10:35;;;;;;;0.55;0.50;;;16.60;99.90;;;;;;5292081;26;20535;-82
2024/04/12 09:13:14;;;;;;;0.73;0.45;;;16.70;99.90;;;;;;5351744;26;20032;-80
2024/04/12 09:15:45;;;;;;;0.40;0.30;;;16.90;99.90;;;;;;5364644;26;20538;-85
2024/04/12 09:18:15;;;;;;;0.57;0.22;;;16.90;99.90;;;;;;5349026;26;20113;-86
2024/04/12 09:21:00;;;;;;;0.40;0.40;;;17.00;99.90;;;;;;5337452;26;20012;-82
2024/04/12 09:23:34;;;;;;;0.77;0.30;;;17.20;99.90;;;;;;5353419;26;20012;-81
2024/04/12 09:26:21;;;;;;;0.82;0.40;;;17.30;99.90;;;;;;5319503;26;20019;-83
2024/04/12 09:28:51;;;;;;;1.38;0.60;;;17.50;99.90;;;;;;5315440;26;20005;-83
2024/04/12 09:34:22;;;;;;;1.42;0.30;;;17.90;99.90;;;;;;5374913;26;20080;-81
2024/04/12 09:36:56;;;;;;;0.70;0.50;;;18.00;99.90;;;;;;5364562;26;20010;-82
2024/04/12 09:39:23;;;;;;;0.57;0.50;;;18.10;99.90;;;;;;5326044;26;20023;-81
2024/04/12 09:41:53;;;;;;;0.75;0.45;;;18.30;99.90;;;;;;5310895;26;20008;-81
2024/04/12 09:44:27;;;;;;;0.93;0.40;;;18.40;99.90;;;;;;5333080;26;20014;-81
2024/04/12 10:37:30;;;;;;;0.60;0.38;;;19.30;99.90;;;;;;5338748;26;20001;-81
2024/04/12 10:39:58;;;;;;;0.30;0.30;;;19.30;99.90;;;;;;5313187;26;20072;-82
2024/04/12 10:42:25;;;;;;;0.60;0.35;;;19.40;99.90;;;;;;5277594;26;20020;-82
2024/04/12 10:44:56;;;;;;;0.80;0.50;;;19.50;99.90;;;;;;5393859;26;20048;-83
2024/04/12 10:47:24;;;;;;;0.80;0.50;;;19.60;99.90;;;;;;5367096;26;20020;-81
2024/04/12 10:49:51;;;;;;;1.10;0.60;;;19.60;99.90;;;;;;5310931;26;20119;-83
2024/04/12 10:52:28;;;;;;;0.65;0.50;;;19.60;99.90;;;;;;5341624;26;20439;-83
2024/04/12 10:55:08;;;;;;;0.98;0.60;;;19.50;99.90;;;;;;5335095;26;20076;-83
2024/04/12 10:57:42;;;;;;;0.30;0.30;;;19.70;99.90;;;;;;5367418;26;20018;-83
2024/04/12 11:00:28;;;;;;;1.13;0.50;;;19.80;99.90;;;;;;5363661;26;20028;-81
2024/04/12 11:02:59;;;;;;;1.13;0.60;;;20.00;99.90;;;;;;5337443;26;20017;-85
2024/04/12 11:08:06;;;;;;;0.65;0.40;;;20.20;99.90;;;;;;5356530;26;20765;-84
2024/04/12 11:11:15;;;;;;;1.48;0.50;;;20.20;99.90;;;;;;5334281;26;20045;-83
2024/04/12 11:13:46;;;;;;;1.20;0.60;;;20.30;99.90;;;;;;5340530;26;20032;-83
2024/04/12 11:33:04;;;;;;;0.20;0.20;;;21.10;99.90;;;;;;5369071;26;20004;-81
2024/04/12 11:35:34;;;;;;;0.45;0.35;;;21.20;99.90;;;;;;5372059;26;20016;-82
2024/04/12 11:38:04;;;;;;;0.73;0.45;;;21.40;99.90;;;;;;5343314;26;20004;-83
2024/04/12 11:40:37;;;;;;;1.10;0.77;;;21.50;99.90;;;;;;5339517;26;20003;-83
2024/04/12 11:43:06;;;;;;;0.70;0.45;;;21.50;99.90;;;;;;5362153;26;20013;-85
2024/04/12 11:45:38;;;;;;;1.02;0.30;;;21.80;99.90;;;;;;5435311;26;20045;-84
2024/04/12 11:48:14;;;;;;;0.93;0.30;;;21.90;99.90;;;;;;5391356;26;20011;-84
2024/04/12 11:50:42;;;;;;;0.38;0.30;;;22.00;99.90;;;;;;5348641;26;20018;-84
2024/04/12 11:53:10;;;;;;;0.73;0.43;;;22.00;99.90;;;;;;5402624;26;20000;-85
2024/04/12 11:55:39;;;;;;;0.40;0.40;;;22.10;99.90;;;;;;5335312;26;20119;-85
2024/04/12 11:58:08;;;;;;;0.63;0.35;;;22.30;99.90;;;;;;5335932;26;20489;-84
2024/04/12 12:00:40;;;;;;;0.40;0.40;;;22.50;99.90;;;;;;5367461;26;20000;-84
2024/04/12 12:03:15;;;;;;;1.10;0.55;;;22.70;99.90;;;;;;5312234;26;20073;-86
2024/04/12 12:05:45;;;;;;;1.05;0.60;;;22.70;99.90;;;;;;5348389;26;20008;-83
2024/04/12 12:08:13;;;;;;;0.47;0.30;;;22.70;99.90;;;;;;5343487;26;20003;-83
2024/04/12 12:10:40;;;;;;;1.10;0.40;;;22.80;99.90;;;;;;5331152;26;20079;-82
2024/04/12 12:13:07;;;;;;;1.08;0.40;;;22.80;99.90;;;;;;5328207;26;20076;-83
2024/04/12 12:15:34;;;;;;;0.68;0.50;;;22.90;99.90;;;;;;5364760;26;20003;-81
2024/04/12 12:18:04;;;;;;;0.95;0.50;;;23.00;99.90;;;;;;5400757;26;20521;-82
2024/04/12 12:20:31;;;;;;;0.60;0.50;;;23.20;99.90;;;;;;5366389;26;20150;-83
2024/04/12 12:22:58;;;;;;;0.98;0.65;;;23.20;99.90;;;;;;5316158;26;20019;-82
2024/04/12 12:25:26;;;;;;;0.52;0.50;;;23.20;99.90;;;;;;5352641;26;20014;-82
2024/04/12 12:27:54;;;;;;;0.50;0.50;;;23.30;99.90;;;;;;5321185;26;20004;-83
2024/04/12 12:30:26;;;;;;;0.98;0.40;;;23.60;99.90;;;;;;5332078;26;20045;-90
2024/04/12 12:32:55;;;;;;;0.50;0.30;;;23.80;99.90;;;;;;5340601;26;20015;-89
2024/04/12 12:35:23;;;;;;;1.40;0.60;;;23.80;99.90;;;;;;5345160;26;20016;-87
2024/04/12 12:37:50;;;;;;;0.55;0.40;;;23.70;99.90;;;;;;5316312;26;20025;-84
2024/04/12 12:40:20;;;;;;;1.23;0.60;;;23.90;99.90;;;;;;5271010;26;20021;-86
2024/04/12 12:42:48;;;;;;;0.40;0.40;;;23.80;99.90;;;;;;5330735;26;20016;-87
2024/04/12 12:45:16;;;;;;;0.77;0.50;;;23.80;99.90;;;;;;5358004;26;20005;-85
2024/04/12 12:47:43;;;;;;;0.82;0.50;;;23.80;99.90;;;;;;5330505;26;20004;-81
2024/04/12 12:50:19;;;;;;;1.13;0.50;;;23.70;99.90;;;;;;5330508;26;20008;-83
2024/04/12 12:52:49;;;;;;;0.68;0.50;;;23.50;99.90;;;;;;5358746;26;20000;-83
2024/04/12 12:55:23;;;;;;;0.65;0.40;;;23.70;99.90;;;;;;5330968;26;20080;-83
2024/04/12 12:58:08;;;;;;;0.65;0.50;;;23.80;99.90;;;;;;5309959;26;20123;-85
2024/04/12 13:00:36;;;;;;;1.00;0.50;;;24.00;99.90;;;;;;5353714;26;20082;-82
2024/04/12 13:03:11;;;;;;;0.38;0.32;;;24.10;99.90;;;;;;5354683;26;20011;-81
2024/04/12 13:05:38;;;;;;;1.15;0.60;;;24.20;99.90;;;;;;5321415;26;20018;-83
2024/04/12 13:08:06;;;;;;;0.98;0.55;;;24.10;99.90;;;;;;5315724;26;20419;-81
2024/04/12 13:10:33;;;;;;;0.95;0.40;;;23.90;99.90;;;;;;5346462;26;20081;-83
2024/04/12 13:13:04;;;;;;;0.63;0.40;;;24.30;99.90;;;;;;5315740;26;20533;-81
2024/04/12 13:15:31;;;;;;;1.75;0.70;;;24.30;99.90;;;;;;5300438;26;20441;-88
2024/04/12 13:17:58;;;;;;;0.95;0.60;;;24.60;99.90;;;;;;5369279;26;20008;-90
2024/04/12 13:20:32;;;;;;;1.58;0.73;;;24.60;99.90;;;;;;5331067;26;20019;-87
2024/04/12 13:23:03;;;;;;;1.85;0.75;;;24.70;99.90;;;;;;5322014;26;19997;-88
2024/04/12 13:25:37;;;;;;;0.68;0.50;;;24.90;99.90;;;;;;5345622;26;20081;-88
2024/04/12 13:28:11;;;;;;;0.35;0.30;;;25.30;99.90;;;;;;5340155;26;20074;-86
2024/04/12 13:30:41;;;;;;;0.50;0.40;;;25.50;99.90;;;;;;5349930;26;20032;-89
2024/04/12 13:33:15;;;;;;;0.82;0.50;;;25.20;99.90;;;;;;5309002;26;20758;-88
2024/04/12 13:35:42;;;;;;;0.95;0.47;;;25.30;99.90;;;;;;5314104;26;20059;-89
2024/04/12 13:38:15;;;;;;;0.35;0.35;;;25.40;99.90;;;;;;5372787;26;20008;-91
2024/04/12 13:40:45;;;;;;;0.40;0.40;;;25.70;99.90;;;;;;5342298;26;20412;-89
2024/04/12 13:43:15;;;;;;;0.60;0.45;;;25.80;99.90;;;;;;5342878;26;20005;-83
2024/04/12 13:51:17;;;;;;;1.33;0.68;;;26.20;99.90;;;;;;5366530;26;20077;-87
2024/04/12 13:53:45;;;;;;;0.55;0.30;;;26.10;99.90;;;;;;5337890;26;20008;-88
2024/04/12 13:56:27;;;;;;;0.77;0.52;;;25.90;99.90;;;;;;5364749;26;20000;-85
2024/04/12 13:58:58;;;;;;;0.68;0.40;;;26.20;99.90;;;;;;5354758;26;20096;-85
2024/04/12 14:01:27;;;;;;;0.60;0.50;;;26.40;99.90;;;;;;5287588;26;20015;-86
2024/04/12 14:03:58;;;;;;;0.30;0.30;;;26.40;99.90;;;;;;5354434;26;20086;-87
2024/04/12 14:06:26;;;;;;;0.30;0.30;;;26.40;99.90;;;;;;5318468;26;20101;-86
2024/04/12 14:08:57;;;;;;;0.30;0.30;;;26.30;99.70;;;;;;5318830;26;20538;-87
2024/04/12 14:11:25;;;;;;;0.77;0.60;;;26.00;99.60;;;;;;5302406;26;20617;-86
2024/04/12 14:13:53;;;;;;;1.20;0.50;;;25.60;99.90;;;;;;5318591;26;20017;-86
2024/04/12 14:16:28;;;;;;;0.77;0.57;;;25.60;99.90;;;;;;5333452;26;20017;-87
2024/04/12 14:18:57;;;;;;;0.60;0.50;;;25.80;99.90;;;;;;5289994;26;20045;-88
2024/04/12 14:21:33;;;;;;;0.60;0.30;;;26.00;99.80;;;;;;5362699;26;20004;-91
2024/04/12 14:24:55;;;;;;;0.50;0.40;;;25.60;99.70;;;;;;5337336;26;20078;-91
2024/04/12 14:27:17;;;;;;;0.90;0.68;;;25.60;99.90;;;;;;5320182;26;20193;-91
2024/04/12 14:30:06;;;;;;;0.80;0.55;;;25.40;99.90;;;;;;5309622;26;20008;-90
2024/04/12 14:32:35;;;;;;;0.65;0.35;;;25.50;99.90;;;;;;5353649;26;20002;-91
2024/04/12 14:35:09;;;;;;;0.82;0.40;;;25.70;99.90;;;;;;5343820;26;20008;-90
2024/04/12 14:37:44;;;;;;;0.30;0.30;;;25.70;99.80;;;;;;5372991;26;20000;-93